createdAt,value
2018-05-25T05:27:00.398Z,46.00
2018-05-25T05:29:30.767Z,45.30
2018-05-25T05:32:01.194Z,42.20
2018-05-25T05:34:31.779Z,43.00
2018-05-25T05:37:03.388Z,40.90
2018-05-25T05:39:34.044Z,41.90
2018-05-25T05:42:05.456Z,41.30
2018-05-25T05:44:36.821Z,41.10
2018-05-25T05:47:07.208Z,41.10
2018-05-25T05:49:38.988Z,41.40
2018-05-25T05:52:09.610Z,40.20
2018-05-25T05:54:40.410Z,40.20
2018-05-25T05:57:10.556Z,41.00
2018-05-25T05:59:40.675Z,41.90
2018-05-25T06:02:11.103Z,40.30
2018-05-25T06:07:24.787Z,40.10
2018-05-25T06:09:55.744Z,40.00
2018-05-25T06:12:26.982Z,38.70
2018-05-25T06:14:57.232Z,38.60
2018-05-25T06:17:28.037Z,39.10
2018-05-25T06:19:58.358Z,40.10
2018-05-25T06:22:28.461Z,42.20
2018-05-25T06:24:58.733Z,42.30
2018-05-25T06:27:29.857Z,44.40
2018-05-25T06:30:00.713Z,45.70
2018-05-25T06:32:31.584Z,45.60
2018-05-25T06:35:01.717Z,46.60
2018-05-25T06:37:32.087Z,47.10
2018-05-25T06:40:04.052Z,49.90
2018-05-25T06:42:34.376Z,49.30
2018-05-25T06:45:07.114Z,50.30
2018-05-25T06:47:38.766Z,50.20
2018-05-25T06:50:08.936Z,52.00
2018-05-25T06:52:39.322Z,53.20
2018-05-25T06:55:09.518Z,53.50
2018-05-25T06:57:39.726Z,53.60
2018-05-25T07:00:10.129Z,53.70
2018-05-25T07:02:41.481Z,53.50
2018-05-25T07:05:12.447Z,54.30
2018-05-25T07:07:42.891Z,54.30
2018-05-25T07:10:13.309Z,54.60
2018-05-25T07:12:44.791Z,55.20
2018-05-25T07:15:21.202Z,56.00
2018-05-25T07:17:52.283Z,56.00
2018-05-25T07:20:26.781Z,56.40
2018-05-25T07:22:59.369Z,56.20
2018-05-25T07:25:34.479Z,56.20
2018-05-25T07:28:05.798Z,56.60
2018-05-25T07:30:36.757Z,57.00
2018-05-25T07:33:09.409Z,58.50
2018-05-25T07:35:39.881Z,58.50
2018-05-25T07:38:11.110Z,59.40
2018-05-25T07:40:42.435Z,59.90
2018-05-25T07:43:14.234Z,64.40
2018-05-25T07:45:45.711Z,64.40
2018-05-25T07:48:17.252Z,66.60
2018-05-25T07:50:47.386Z,66.50
2018-05-25T07:53:18.523Z,67.10
2018-05-25T07:55:48.602Z,68.10
2018-05-25T07:58:19.446Z,66.70
2018-05-25T08:00:53.925Z,65.70
2018-05-25T08:03:25.340Z,65.80
2018-05-25T09:37:48.239Z,62.30
2018-05-25T09:40:18.776Z,62.30
2018-05-25T09:42:51.163Z,59.20
2018-05-25T09:45:22.669Z,59.20
2018-05-25T09:47:54.670Z,59.10
2018-05-25T09:50:26.877Z,58.50
2018-05-25T09:52:58.913Z,58.60
2018-05-25T09:55:30.745Z,60.30
2018-05-25T09:58:01.365Z,60.30
2018-05-25T10:00:32.568Z,59.70
2018-05-25T10:03:05.218Z,61.10
2018-05-25T10:05:35.569Z,61.20
2018-05-25T10:08:06.803Z,60.50
2018-05-25T10:10:38.304Z,60.30
2018-05-25T10:13:08.787Z,60.30
2018-05-25T10:15:40.336Z,59.70
2018-05-25T10:18:11.420Z,59.60
2018-05-25T10:20:44.018Z,59.40
2018-05-25T10:23:14.403Z,58.80
2018-05-25T10:25:46.603Z,57.80
2018-05-25T10:28:16.919Z,57.10
2018-05-25T10:30:47.340Z,57.00
2018-05-25T10:33:17.817Z,57.30
2018-05-25T10:35:57.048Z,56.50
2018-05-25T10:38:27.749Z,56.50
2018-05-25T10:40:59.364Z,56.50
2018-05-25T10:43:30.646Z,56.10
2018-05-25T10:46:01.031Z,56.00
2018-05-25T10:48:33.199Z,56.80
2018-05-25T10:51:06.070Z,57.60
2018-05-25T10:53:38.202Z,57.60
2018-05-25T10:56:09.134Z,56.80
2018-05-25T10:58:40.185Z,57.90
2018-05-25T11:01:10.703Z,58.50
2018-05-25T11:03:44.840Z,58.60
2018-05-25T11:06:18.594Z,59.70
2018-05-25T11:08:50.824Z,59.60
2018-05-25T11:11:21.720Z,60.20
2018-05-25T11:13:53.095Z,60.30
2018-05-25T11:16:23.842Z,60.20
2018-05-25T11:20:16.634Z,59.10
2018-05-25T11:22:49.545Z,59.60
2018-05-25T11:25:20.125Z,59.50
2018-05-25T11:27:50.528Z,59.20
2018-05-25T11:30:22.221Z,58.70
2018-05-25T11:32:54.099Z,59.00
2018-05-25T11:35:24.371Z,59.00
2018-05-25T11:37:54.713Z,58.80
2018-05-25T11:40:24.861Z,60.50
2018-05-25T11:42:57.211Z,60.40
2018-05-25T11:45:28.500Z,60.10
2018-05-25T11:47:58.746Z,60.00
2018-05-25T11:50:29.777Z,59.20
2018-05-25T11:52:59.895Z,58.80
2018-05-25T11:55:30.354Z,58.90
2018-05-25T11:58:01.108Z,58.20
2018-05-25T12:00:32.416Z,58.80
2018-05-25T12:03:02.831Z,58.80
2018-05-25T12:05:33.660Z,58.20
2018-05-25T12:08:03.880Z,57.00
2018-05-25T12:10:34.296Z,57.10
2018-05-25T12:13:05.223Z,57.60
2018-05-25T12:15:35.442Z,56.50
2018-05-25T12:18:07.526Z,56.50
2018-05-25T12:20:39.860Z,56.60
2018-05-25T12:23:12.249Z,57.30
2018-05-25T12:25:44.779Z,56.70
2018-05-25T12:28:15.471Z,56.70
2018-05-25T12:30:46.043Z,57.10
2018-05-25T12:33:17.694Z,56.70
2018-05-25T12:35:47.918Z,55.90
2018-05-25T12:38:19.092Z,55.90
2018-05-25T12:40:49.888Z,56.00
2018-05-25T12:43:21.178Z,57.00
2018-05-25T12:45:51.371Z,56.50
2018-05-25T12:48:21.988Z,56.80
2018-05-25T12:50:52.146Z,57.10
2018-05-25T12:53:23.236Z,56.60
2018-05-25T12:55:54.058Z,56.70
2018-05-25T12:58:25.492Z,56.50
2018-05-25T13:00:56.686Z,54.90
2018-05-25T13:03:27.267Z,54.90
2018-05-25T13:05:58.606Z,56.30
2018-05-25T13:08:32.465Z,55.30
2018-05-25T13:13:48.430Z,54.70
2018-05-25T13:16:20.283Z,55.60
2018-05-25T13:18:55.804Z,55.20
2018-05-25T13:21:27.140Z,55.20
2018-05-25T13:23:58.321Z,54.60
2018-05-25T13:26:29.517Z,56.20
2018-05-25T13:29:00.982Z,56.20
2018-05-25T13:31:33.424Z,56.10
2018-05-25T13:34:10.084Z,56.00
2018-05-25T13:36:47.227Z,54.70
2018-05-25T13:39:23.267Z,54.30
2018-05-25T13:41:56.218Z,54.20
2018-05-25T13:44:27.479Z,54.90
2018-05-25T13:46:58.838Z,55.50
2018-05-25T13:49:29.189Z,55.40
2018-05-25T13:52:02.258Z,54.50
2018-05-25T13:54:34.139Z,53.70
2018-05-25T13:57:04.625Z,52.90
2018-05-25T13:59:36.671Z,53.40
2018-05-25T14:02:07.141Z,53.70
2018-05-25T14:04:38.047Z,52.40
2018-05-25T14:07:08.804Z,52.30
2018-05-25T14:09:42.105Z,52.60
2018-05-25T14:12:17.867Z,53.30
2018-05-25T14:14:52.495Z,53.20
2018-05-25T14:17:23.509Z,53.40
2018-05-25T14:19:54.145Z,53.90
2018-05-25T14:22:25.733Z,54.10
2018-05-25T14:24:56.977Z,52.60
2018-05-25T14:27:27.641Z,52.60
2018-05-25T14:29:58.683Z,54.00
2018-05-25T14:32:29.873Z,53.20
2018-05-25T14:35:00.784Z,53.20
2018-05-25T14:37:32.391Z,52.60
2018-05-25T14:40:03.341Z,52.60
2018-05-25T14:42:34.799Z,52.70
2018-05-25T14:45:06.625Z,52.10
2018-05-25T14:47:38.556Z,52.10
2018-05-25T14:50:16.521Z,52.10
2018-05-25T14:52:47.069Z,52.60
2018-05-25T14:55:19.552Z,53.20
2018-05-25T14:57:50.440Z,53.10
2018-05-25T15:00:21.578Z,52.80
2018-05-25T15:02:52.572Z,52.80
2018-05-25T15:05:26.721Z,53.50
2018-05-25T15:07:57.046Z,53.90
2018-05-25T15:10:28.221Z,54.30
2018-05-25T15:12:58.453Z,54.10
2018-05-25T15:15:28.821Z,54.00
2018-05-25T15:17:59.961Z,54.80
2018-05-25T15:20:31.258Z,54.30
2018-05-25T15:23:01.702Z,54.30
2018-05-25T15:25:32.847Z,54.70
2018-05-25T15:28:07.059Z,55.00
2018-05-25T15:30:37.866Z,54.70
2018-05-25T15:33:08.368Z,55.20
2018-05-25T15:35:41.834Z,55.00
2018-05-25T15:38:14.628Z,53.60
2018-05-25T15:40:45.251Z,53.50
2018-05-25T15:43:16.241Z,52.90
2018-05-25T15:45:49.190Z,53.00
2018-05-25T15:48:20.673Z,53.10
2018-05-25T15:50:52.240Z,53.40
2018-05-25T15:53:25.170Z,53.20
2018-05-25T15:55:57.672Z,53.40
2018-05-25T15:58:29.365Z,53.60
2018-05-25T16:01:00.649Z,53.80
2018-05-25T16:03:33.748Z,54.20
2018-05-25T16:06:08.606Z,54.60
2018-05-25T16:08:40.701Z,56.80
2018-05-25T16:11:14.191Z,60.50
2018-05-25T16:13:46.639Z,60.40
2018-05-25T16:16:19.279Z,61.50
2018-05-25T16:18:51.713Z,59.30
2018-05-25T16:21:24.580Z,59.00
2018-05-25T16:23:58.310Z,61.60
2018-05-25T16:26:29.621Z,62.60
2018-05-25T16:29:00.539Z,62.40
2018-05-25T16:31:31.324Z,61.90
2018-05-25T16:34:02.255Z,62.50
2018-05-25T16:36:33.381Z,62.80
2018-05-25T16:39:04.897Z,63.50
2018-05-25T16:41:36.248Z,63.00
2018-05-25T16:44:07.507Z,62.70
2018-05-25T16:46:38.792Z,62.00
2018-05-25T16:49:09.683Z,62.00
2018-05-25T16:51:41.122Z,61.30
2018-05-25T16:54:12.077Z,60.00
2018-05-25T16:56:44.776Z,57.20
2018-05-25T16:59:15.244Z,57.20
2018-05-25T17:01:47.238Z,55.40
2018-05-25T17:04:18.813Z,55.70
2018-05-25T17:06:49.530Z,55.70
2018-05-25T17:09:21.406Z,54.10
2018-05-25T17:11:53.277Z,56.90
2018-05-25T17:14:24.349Z,59.30
2018-05-25T17:16:55.227Z,60.20
2018-05-25T17:19:29.127Z,63.00
2018-05-25T17:22:00.939Z,62.50
2018-05-25T17:24:33.676Z,62.50
2018-05-25T17:27:05.407Z,62.80
2018-05-25T17:29:36.998Z,62.70
2018-05-25T17:32:07.856Z,64.50
2018-05-25T17:34:38.501Z,65.00
2018-05-25T17:37:09.917Z,66.00
2018-05-25T17:39:42.040Z,65.70
2018-05-25T17:42:13.401Z,65.00
2018-05-25T17:44:44.387Z,66.10
2018-05-25T17:47:15.951Z,66.20
2018-05-25T17:49:47.322Z,66.20
2018-05-25T17:52:18.508Z,66.60
2018-05-25T17:54:52.376Z,66.40
2018-05-25T17:57:23.468Z,67.90
2018-05-25T17:59:56.556Z,67.30
2018-05-25T18:02:28.779Z,67.30
2018-05-25T18:05:04.966Z,67.40
2018-05-25T18:07:38.479Z,66.60
2018-05-25T18:10:11.639Z,66.60
2018-05-25T18:12:42.690Z,66.60
2018-05-25T18:15:15.217Z,66.20
2018-05-25T18:17:50.394Z,65.90
2018-05-25T18:20:25.595Z,66.00
2018-05-25T18:22:59.295Z,66.00
2018-05-25T18:25:30.248Z,65.80
2018-05-25T18:28:01.923Z,66.00
2018-05-25T18:30:34.413Z,65.80
2018-05-25T18:33:06.807Z,66.10
2018-05-25T18:35:37.842Z,66.50
2018-05-25T18:38:09.335Z,67.30
2018-05-25T18:40:41.129Z,67.50
2018-05-25T18:43:16.883Z,67.60
2018-05-25T18:45:54.866Z,68.30
2018-05-25T18:48:26.405Z,68.00
2018-05-25T18:51:00.352Z,68.30
2018-05-25T18:53:32.684Z,68.50
2018-05-25T18:56:04.784Z,68.50
2018-05-25T18:58:37.369Z,68.60
2018-05-25T19:01:10.808Z,68.70
2018-05-25T19:03:41.883Z,68.90
2018-05-25T19:06:12.645Z,68.80
2018-05-25T19:08:44.285Z,69.10
2018-05-25T19:11:17.381Z,69.20
2018-05-25T19:13:49.397Z,69.50
2018-05-25T19:16:22.018Z,69.80
2018-05-25T19:18:53.815Z,70.90
2018-05-25T19:21:26.116Z,71.00
2018-05-25T19:23:57.493Z,71.00
2018-05-25T19:26:29.215Z,71.20
2018-05-25T19:29:02.099Z,71.50
2018-05-25T19:31:33.514Z,71.40
2018-05-25T19:34:04.516Z,71.60
2018-05-25T19:36:35.572Z,71.10
2018-05-25T19:39:08.890Z,71.10
2018-05-25T19:41:42.625Z,70.60
2018-05-25T19:44:13.510Z,70.50
2018-05-25T19:46:45.979Z,70.60
2018-05-25T19:49:18.583Z,70.80
2018-05-25T19:51:52.718Z,70.70
2018-05-25T19:54:24.103Z,70.90
2018-05-25T19:56:54.911Z,70.80
2018-05-25T19:59:25.974Z,72.10
2018-05-25T20:01:57.616Z,70.70
2018-05-25T20:04:27.920Z,71.00
2018-05-25T20:06:58.958Z,71.20
2018-05-25T20:09:29.344Z,71.10
2018-05-25T20:12:02.816Z,69.60
2018-05-25T20:14:33.266Z,70.50
2018-05-25T20:17:03.999Z,70.60
2018-05-25T20:19:35.212Z,70.90
2018-05-25T20:22:05.836Z,71.70
2018-05-25T20:24:37.559Z,71.10
2018-05-25T20:27:09.298Z,71.30
2018-05-25T20:29:41.802Z,71.20
2018-05-25T20:32:14.870Z,71.00
2018-05-25T20:34:46.597Z,70.90
2018-05-25T20:37:18.329Z,71.50
2018-05-25T20:39:51.206Z,72.40
2018-05-25T20:42:24.650Z,73.70
2018-05-25T20:44:56.636Z,73.70
2018-05-25T20:47:32.983Z,73.90
2018-05-25T20:50:06.786Z,73.10
2018-05-25T20:52:40.603Z,74.30
2018-05-25T20:55:12.198Z,71.40
2018-05-25T20:57:46.016Z,73.30
2018-05-25T21:00:18.976Z,72.80
2018-05-25T21:02:50.927Z,72.80
2018-05-25T21:05:22.332Z,72.70
2018-05-25T21:07:53.900Z,73.20
2018-05-25T21:10:26.719Z,73.60
2018-05-25T21:12:59.132Z,73.10
2018-05-25T21:15:31.028Z,73.40
2018-05-25T21:18:02.084Z,73.30
2018-05-25T21:20:37.861Z,71.70
2018-05-25T21:23:12.002Z,72.20
2018-05-25T21:25:45.545Z,72.00
2018-05-25T21:28:16.225Z,71.50
2018-05-25T21:30:48.452Z,71.50
2018-05-25T21:33:20.571Z,70.10
2018-05-25T21:35:52.039Z,71.50
2018-05-25T21:38:24.204Z,71.40
2018-05-25T21:40:54.553Z,71.60
2018-05-25T21:43:26.715Z,72.80
2018-05-25T21:45:57.747Z,72.80
2018-05-25T21:48:29.476Z,72.80
2018-05-25T21:51:00.083Z,73.00
2018-05-25T21:53:33.147Z,72.90
2018-05-25T21:56:05.271Z,73.00
2018-05-25T21:58:36.325Z,72.90
2018-05-25T22:01:11.180Z,73.20
2018-05-25T22:03:41.783Z,72.50
2018-05-25T22:06:13.796Z,73.30
2018-05-25T22:08:45.059Z,73.40
2018-05-25T22:11:18.405Z,73.00
2018-05-25T22:13:50.782Z,74.00
2018-05-25T22:16:21.505Z,74.30
2018-05-25T22:18:52.728Z,72.00
2018-05-25T22:21:24.061Z,71.70
2018-05-25T22:23:55.841Z,71.60
2018-05-25T22:26:26.342Z,71.60
2018-05-25T22:28:58.674Z,71.20
2018-05-25T22:31:30.036Z,71.10
2018-05-25T22:34:00.515Z,71.50
2018-05-25T22:36:32.337Z,71.40
2018-05-25T22:39:06.537Z,71.10
2018-05-25T22:41:37.979Z,71.50
2018-05-25T22:44:19.386Z,71.30
2018-05-25T22:47:00.938Z,71.40
2018-05-25T22:49:42.516Z,71.20
2018-05-25T22:52:22.773Z,71.00
2018-05-25T22:54:54.555Z,71.10
2018-05-25T22:57:24.926Z,70.60
2018-05-25T22:59:55.595Z,71.00
2018-05-25T23:02:26.117Z,70.70
2018-05-25T23:04:56.555Z,71.20
2018-05-25T23:07:28.464Z,71.30
2018-05-25T23:09:58.969Z,71.50
2018-05-25T23:12:29.140Z,71.40
2018-05-25T23:14:59.583Z,71.00
2018-05-25T23:17:29.968Z,70.80
2018-05-25T23:20:01.230Z,71.10
2018-05-25T23:22:32.880Z,71.10
2018-05-25T23:25:04.699Z,71.20
2018-05-25T23:27:36.771Z,71.20
2018-05-25T23:30:07.144Z,71.30
2018-05-25T23:32:40.070Z,69.60
2018-05-25T23:35:12.032Z,71.50
2018-05-25T23:39:03.091Z,71.40
2018-05-25T23:41:34.451Z,71.80
2018-05-25T23:44:04.952Z,71.80
2018-05-25T23:46:36.405Z,73.20
2018-05-25T23:49:07.187Z,72.30
2018-05-25T23:51:37.502Z,72.40
2018-05-25T23:54:07.594Z,72.70
2018-05-25T23:56:37.764Z,72.70
2018-05-25T23:59:09.507Z,73.10
